Language: 

Nearby METAR Reports

METAR Reports

Hourly observations from airfields within 50 miles of this weather station

 

EGHH - Bournemouth Airp, United Kingdom
Distance from station: S 10mi, 17km
Updated: Mon, 21-Jan-2019 3:50pm GMT
Partly Cloudy
Partly Cloudy
 Wind from S
Wind: S 5 mph , 7 km/h
Temperature: 6°C
Wind Chill: 4°C
Dew Point: 1°C
Humidity: 71%
Barometer: 1019 hPa
Clouds: Partly Cloudy
Visibility: 6 miles , 10 km
Cloud details: Partly Cloudy 914 m
2019/01/21 15:50 EGHH 211550Z 19004KT 9999 SCT030 06/01 Q1019
EGDM - Boscombe Down, United Kingdom
Distance from station: N 16mi, 26km
Updated: Mon, 21-Jan-2019 3:50pm GMT
Mostly Cloudy
Mostly Cloudy
 Wind from SSW
Wind: SSW 12 mph , 19 km/h
Temperature: 4°C
Wind Chill: 0°C
Dew Point: 1°C
Humidity: 81%
Barometer: 1019 hPa
Clouds: Mostly Cloudy
Visibility: 6 miles , 10 km
Cloud details: Partly Cloudy 853 m
Mostly Cloudy 6096 m
2019/01/21 15:50 EGDM 211550Z 20010KT 9999 SCT028 BKN200 04/01 Q1019 BLU NOSIG
 
EGVP - Middle Wallop, United Kingdom
Distance from station: NE 17mi, 27km
Updated: Mon, 21-Jan-2019 3:50pm GMT
Mostly Cloudy
Mostly Cloudy
 Wind from SSW
Wind: SSW 7 mph , 11 km/h
Temperature: 4°C
Wind Chill: 1°C
Dew Point: 1°C
Humidity: 81%
Barometer: 1019 hPa
Clouds: Mostly Cloudy
Visibility: 6 miles , 10 km
Cloud details: Mostly Cloudy 853 m
Mostly Cloudy 6096 m
2019/01/21 15:50 EGVP 211550Z 20006KT 9999 BKN028 BKN200 04/01 Q1019 BLU NOSIG
EGHI - Southampton Wx C, United Kingdom
Distance from station: E 19mi, 31km
Updated: Mon, 21-Jan-2019 3:50pm GMT
Mostly Cloudy
Mostly Cloudy
 Wind from S
Wind: S 7 mph , 11 km/h
Temperature: 5°C
Wind Chill: 2°C
Dew Point: 0°C
Humidity: 70%
Barometer: 1020 hPa
Clouds: Mostly Cloudy
Visibility: 6 miles , 10 km
Cloud details: Mostly Cloudy 792 m
2019/01/21 15:50 EGHI 211550Z 19006KT 9999 BKN026 05/00 Q1020
 
EGDY - Yeovilton (navy), United Kingdom
Distance from station: W 36mi, 58km
Updated: Mon, 21-Jan-2019 2:50pm GMT
Overcast
Overcast
 Wind from S
Wind: S 12 mph , 19 km/h
Temperature: 6°C
Wind Chill: 3°C
Dew Point: 2°C
Humidity: 76%
Barometer: 1020 hPa
Clouds: Overcast
Visibility: 6 miles , 10 km
Cloud details: Few Clouds 762 m
Overcast 6096 m
2019/01/21 14:50 EGDY 211450Z 19010KT 9999 FEW025 OVC200 06/02 Q1020 BLU NOSIG
EGVO - Odiham Raf, United Kingdom
Distance from station: ENE 42mi, 68km
Updated: Mon, 21-Jan-2019 3:50pm GMT
Mostly Cloudy
Mostly Cloudy
 Wind from SSW
Wind: SSW 9 mph , 15 km/h
Temperature: 4°C
Wind Chill: 1°C
Dew Point: 1°C
Humidity: 81%
Barometer: 1019 hPa
Clouds: Mostly Cloudy
Visibility: 6 miles , 10 km
Cloud details: Mostly Cloudy 671 m
2019/01/21 15:50 EGVO 211550Z 21008KT 9999 BKN022 04/01 Q1019 WHT TEMPO BKN025 BLU

Metar display script from Saratoga-Weather.org

top of page button